Possum Trot, Mississippi
Current Conditions -  °F | °C
As of 6:53 AM on Wednesday 22 Oct 2014 (Local Time) from KTUP Reporting Station
Clear Clear  
Wind Chill: 42°   Ceiling: Unl
Heat Index: 47°   Visibility: 10mi
Dew Point: 44°   Wind: 10mph
Humidity: 90%   Direction: 40°NE
Pressure: 30.18"   Gusts: NA
Location:  34.1762°N, 88.9612°W
Report Text: KTUP 221153Z 04009KT 10SM CLR 08/07 A3018 RMK AO2 SLP217 T00830067 10122 20072 53019
Loading
Personal Weather Stations






























Interactive Weather Map
Tropical Storm Tracking
New forecast layout! Learn more

10-Day Weather Forecast

Advertisements
Track Severe Weather on mobile